createdAt,value
2019-03-10T00:00:32.027Z,0.00
2019-03-10T00:01:31.986Z,0.00
2019-03-10T00:02:31.973Z,0.00
2019-03-10T00:03:31.978Z,0.00
2019-03-10T00:04:31.974Z,0.00
2019-03-10T00:05:31.964Z,0.00
2019-03-10T00:06:31.953Z,0.00
2019-03-10T00:07:31.921Z,0.00
2019-03-10T00:08:31.904Z,0.00
2019-03-10T00:09:31.898Z,0.00
2019-03-10T00:10:32.394Z,0.00
2019-03-10T00:11:31.877Z,0.00
2019-03-10T00:12:31.867Z,0.00
2019-03-10T00:13:31.856Z,0.00
2019-03-10T00:14:31.841Z,0.00
2019-03-10T00:15:31.899Z,0.00
2019-03-10T00:16:31.827Z,0.00
2019-03-10T00:17:31.831Z,0.00
2019-03-10T00:18:31.834Z,0.00
2019-03-10T00:19:31.786Z,0.00
2019-03-10T00:20:31.788Z,0.00
2019-03-10T00:21:31.786Z,0.00
2019-03-10T00:22:31.758Z,0.00
2019-03-10T00:23:31.745Z,0.00
2019-03-10T00:24:31.726Z,0.00
2019-03-10T00:25:31.713Z,0.00
2019-03-10T00:26:31.788Z,0.00
2019-03-10T00:27:31.698Z,0.00
2019-03-10T00:28:31.685Z,0.00
2019-03-10T00:29:31.708Z,0.00
2019-03-10T00:30:31.701Z,0.00
2019-03-10T00:31:31.742Z,0.00
2019-03-10T00:32:31.645Z,0.00
2019-03-10T00:33:31.666Z,0.00
2019-03-10T00:34:31.645Z,0.00
2019-03-10T00:35:31.703Z,0.00
2019-03-10T00:36:32.418Z,0.00
2019-03-10T00:37:31.604Z,0.00
2019-03-10T00:38:31.627Z,0.00
2019-03-10T00:39:31.708Z,0.00
2019-03-10T00:40:31.641Z,0.00
2019-03-10T00:41:31.562Z,0.00
2019-03-10T00:42:31.931Z,0.00
2019-03-10T00:43:32.460Z,0.00
2019-03-10T00:44:31.537Z,0.00
2019-03-10T00:45:31.531Z,0.00
2019-03-10T00:46:31.495Z,0.00
2019-03-10T00:47:31.494Z,0.00
2019-03-10T00:48:31.472Z,0.00
2019-03-10T00:49:31.448Z,0.00
2019-03-10T00:50:31.465Z,0.00
2019-03-10T00:51:31.443Z,0.00
2019-03-10T00:52:31.449Z,0.00
2019-03-10T00:53:31.412Z,0.00
2019-03-10T00:54:31.410Z,0.00
2019-03-10T00:55:31.381Z,0.00
2019-03-10T00:56:31.377Z,0.00
2019-03-10T00:57:31.387Z,0.00
2019-03-10T00:58:31.346Z,0.00
2019-03-10T00:59:31.340Z,0.00
2019-03-10T01:00:31.322Z,0.00
2019-03-10T01:01:31.322Z,0.00
2019-03-10T01:02:31.330Z,0.00
2019-03-10T01:03:31.301Z,0.00
2019-03-10T01:04:31.277Z,0.00
2019-03-10T01:05:31.267Z,0.00
2019-03-10T01:06:31.269Z,0.00
2019-03-10T01:07:31.277Z,0.00
2019-03-10T01:08:31.262Z,0.00
2019-03-10T01:09:31.240Z,0.00
2019-03-10T01:10:31.217Z,0.00
2019-03-10T01:11:31.206Z,0.00
2019-03-10T01:12:31.221Z,0.00
2019-03-10T01:13:31.200Z,0.00
2019-03-10T01:14:31.168Z,0.00
2019-03-10T01:15:31.156Z,0.00
2019-03-10T01:16:31.153Z,0.00
2019-03-10T01:17:31.133Z,0.00
2019-03-10T01:18:31.155Z,0.00
2019-03-10T01:19:31.148Z,0.00
2019-03-10T01:20:31.106Z,0.00
2019-03-10T01:21:31.117Z,0.00
2019-03-10T01:22:31.087Z,0.00
2019-03-10T01:23:31.085Z,0.00
2019-03-10T01:24:31.066Z,0.00
2019-03-10T01:25:31.046Z,0.00
2019-03-10T01:26:31.048Z,0.00
2019-03-10T01:27:31.026Z,0.00
2019-03-10T01:28:31.096Z,0.00
2019-03-10T01:29:31.008Z,0.00
2019-03-10T01:30:31.006Z,0.00
2019-03-10T01:31:30.987Z,0.00
2019-03-10T01:32:30.968Z,0.00
2019-03-10T01:33:31.430Z,0.00
2019-03-10T01:34:30.941Z,0.00
2019-03-10T01:35:30.942Z,0.00
2019-03-10T01:36:30.946Z,0.00
2019-03-10T01:37:30.910Z,0.00
2019-03-10T01:38:30.925Z,0.00
2019-03-10T01:39:30.886Z,0.00
2019-03-10T01:40:30.914Z,0.00
2019-03-10T01:41:31.389Z,0.00
2019-03-10T01:42:30.858Z,0.00
2019-03-10T01:43:30.838Z,0.00
2019-03-10T01:44:30.870Z,0.00
2019-03-10T01:45:30.829Z,0.00
2019-03-10T01:46:30.829Z,0.00
2019-03-10T01:47:30.810Z,0.00
2019-03-10T01:48:30.786Z,0.00
2019-03-10T01:49:30.804Z,0.00
2019-03-10T01:50:30.769Z,0.00
2019-03-10T01:51:30.755Z,0.00
2019-03-10T01:52:30.748Z,0.00
2019-03-10T01:53:30.733Z,0.00
2019-03-10T01:54:30.769Z,0.00
2019-03-10T01:55:30.700Z,0.00
2019-03-10T01:56:30.694Z,0.00
2019-03-10T01:57:30.683Z,0.00
2019-03-10T01:58:30.682Z,0.00
2019-03-10T01:59:30.694Z,0.00
2019-03-10T02:00:30.649Z,0.00
2019-03-10T02:01:30.655Z,0.00
2019-03-10T02:02:30.635Z,0.00
2019-03-10T02:03:30.633Z,0.00
2019-03-10T02:04:30.630Z,0.00
2019-03-10T02:05:30.630Z,0.00
2019-03-10T02:06:30.581Z,0.00
2019-03-10T02:07:30.579Z,0.00
2019-03-10T02:08:30.556Z,0.00
2019-03-10T02:09:30.561Z,0.00
2019-03-10T02:10:30.571Z,0.00
2019-03-10T02:11:30.533Z,0.00
2019-03-10T02:12:30.520Z,0.00
2019-03-10T02:13:30.509Z,0.00
2019-03-10T02:14:30.498Z,0.00
2019-03-10T02:15:30.503Z,0.00
2019-03-10T02:16:30.471Z,0.00
2019-03-10T02:17:30.456Z,0.00
2019-03-10T02:18:30.445Z,0.00
2019-03-10T02:19:30.436Z,0.00
2019-03-10T02:20:30.447Z,0.00
2019-03-10T02:21:30.437Z,0.00
2019-03-10T02:22:30.407Z,0.00
2019-03-10T02:23:30.385Z,0.00
2019-03-10T02:24:30.381Z,0.00
2019-03-10T02:25:30.398Z,0.00
2019-03-10T02:26:30.367Z,0.00
2019-03-10T02:27:30.347Z,0.00
2019-03-10T02:28:30.343Z,0.00
2019-03-10T02:29:30.322Z,0.00
2019-03-10T02:30:30.403Z,0.00
2019-03-10T02:31:30.304Z,0.00
2019-03-10T02:32:30.306Z,0.00
2019-03-10T02:33:30.303Z,0.00
2019-03-10T02:34:30.274Z,0.00
2019-03-10T02:35:30.281Z,0.00
2019-03-10T02:36:30.257Z,0.00
2019-03-10T02:37:30.237Z,0.00
2019-03-10T02:38:30.241Z,0.00
2019-03-10T02:39:30.216Z,0.00
2019-03-10T02:40:30.221Z,0.00
2019-03-10T02:41:30.254Z,0.00
2019-03-10T02:42:30.189Z,0.00
2019-03-10T02:43:30.208Z,0.00
2019-03-10T02:44:30.167Z,0.00
2019-03-10T02:45:30.177Z,0.00
2019-03-10T02:46:30.132Z,0.00
2019-03-10T02:47:30.130Z,0.00
2019-03-10T02:48:30.115Z,0.00
2019-03-10T02:49:30.108Z,0.00
2019-03-10T02:50:30.120Z,0.00
2019-03-10T02:51:30.075Z,0.00
2019-03-10T02:52:30.066Z,0.00
2019-03-10T02:53:30.114Z,0.00
2019-03-10T02:54:30.046Z,0.00
2019-03-10T02:55:30.060Z,0.00
2019-03-10T02:56:30.028Z,0.00
2019-03-10T02:57:30.009Z,0.00
2019-03-10T02:58:30.008Z,0.00
2019-03-10T02:59:30.010Z,0.00
2019-03-10T03:00:29.998Z,0.00
2019-03-10T03:01:29.978Z,0.00
2019-03-10T03:02:29.957Z,0.00
2019-03-10T03:03:29.945Z,0.00
2019-03-10T03:04:29.953Z,0.00
2019-03-10T03:05:29.944Z,0.00
2019-03-10T03:06:29.927Z,0.00
2019-03-10T03:07:29.916Z,0.00
2019-03-10T03:08:29.900Z,0.00
2019-03-10T03:09:29.885Z,0.00
2019-03-10T03:10:29.882Z,0.00
2019-03-10T03:11:29.858Z,0.00
2019-03-10T03:12:29.847Z,0.00
2019-03-10T03:13:29.842Z,0.00
2019-03-10T03:14:29.820Z,0.00
2019-03-10T03:15:29.922Z,0.00
2019-03-10T03:16:29.816Z,0.00
2019-03-10T03:17:29.792Z,0.00
2019-03-10T03:18:29.772Z,0.00
2019-03-10T03:19:29.772Z,0.00
2019-03-10T03:20:29.788Z,0.00
2019-03-10T03:21:42.428Z,0.00
2019-03-10T03:22:30.738Z,0.00
2019-03-10T03:23:29.737Z,0.00
2019-03-10T03:24:29.722Z,0.00
2019-03-10T03:25:29.713Z,0.00
2019-03-10T03:26:29.716Z,0.00
2019-03-10T03:27:29.679Z,0.00
2019-03-10T03:28:29.665Z,0.00
2019-03-10T03:29:29.669Z,0.00
2019-03-10T03:30:29.641Z,0.00
2019-03-10T03:31:29.655Z,0.00
2019-03-10T03:32:29.628Z,0.00
2019-03-10T03:33:29.679Z,0.00
2019-03-10T03:34:29.619Z,0.00
2019-03-10T03:35:29.595Z,0.00
2019-03-10T03:36:29.640Z,0.00
2019-03-10T03:37:29.562Z,0.00
2019-03-10T03:38:29.553Z,0.00
2019-03-10T03:39:29.538Z,0.00
2019-03-10T03:40:29.541Z,0.00
2019-03-10T03:41:29.551Z,0.00
2019-03-10T03:42:29.522Z,0.00
2019-03-10T03:43:29.495Z,0.00
2019-03-10T03:44:29.496Z,0.00
2019-03-10T03:45:29.478Z,0.00
2019-03-10T03:46:29.483Z,0.00
2019-03-10T03:47:29.455Z,0.00
2019-03-10T03:48:29.437Z,0.00
2019-03-10T03:49:29.438Z,0.00
2019-03-10T03:50:29.426Z,0.00
2019-03-10T03:51:29.439Z,0.00
2019-03-10T03:52:29.407Z,0.00
2019-03-10T03:53:29.389Z,0.00
2019-03-10T03:54:29.380Z,0.00
2019-03-10T03:55:29.357Z,0.00
2019-03-10T03:56:29.381Z,0.00
2019-03-10T03:57:29.359Z,0.00
2019-03-10T03:58:29.359Z,0.00
2019-03-10T03:59:29.334Z,0.00
2019-03-10T04:00:29.308Z,0.00
2019-03-10T04:01:29.312Z,0.00
2019-03-10T04:02:29.282Z,0.00
2019-03-10T04:03:29.282Z,0.00
2019-03-10T04:04:29.300Z,0.00
2019-03-10T04:05:29.257Z,0.00
2019-03-10T04:06:29.257Z,0.00
2019-03-10T04:07:29.225Z,0.00
2019-03-10T04:08:29.218Z,0.00
2019-03-10T04:09:29.218Z,0.00
2019-03-10T04:10:29.211Z,0.00
2019-03-10T04:11:29.227Z,0.00
2019-03-10T04:12:29.171Z,0.00
2019-03-10T04:13:29.163Z,0.00
2019-03-10T04:14:29.160Z,0.00
2019-03-10T04:15:29.161Z,0.00
2019-03-10T04:16:29.190Z,0.00
2019-03-10T04:17:29.114Z,0.00
2019-03-10T04:18:29.118Z,0.00
2019-03-10T04:19:29.091Z,0.00
2019-03-10T04:20:29.083Z,0.00
2019-03-10T04:21:29.099Z,0.00
2019-03-10T04:22:29.054Z,0.00
2019-03-10T04:23:29.044Z,0.00
2019-03-10T04:24:29.038Z,0.00
2019-03-10T04:25:29.027Z,0.00
2019-03-10T04:26:29.046Z,0.00
2019-03-10T04:27:29.007Z,0.00
2019-03-10T04:28:28.995Z,0.00
2019-03-10T04:29:28.983Z,0.00
2019-03-10T04:30:28.971Z,0.00
2019-03-10T04:31:29.067Z,0.00
2019-03-10T04:32:28.959Z,0.00
2019-03-10T04:33:28.935Z,0.00
2019-03-10T04:34:28.922Z,0.00
2019-03-10T04:35:28.923Z,0.00
2019-03-10T04:36:28.931Z,0.00
2019-03-10T04:37:28.967Z,0.00
2019-03-10T04:38:28.875Z,0.00
2019-03-10T04:39:28.886Z,0.00
2019-03-10T04:40:28.855Z,0.00
2019-03-10T04:41:28.860Z,0.00
2019-03-10T04:42:28.835Z,0.00
2019-03-10T04:43:28.829Z,0.00
2019-03-10T04:44:28.817Z,0.00
2019-03-10T04:45:28.797Z,0.00
2019-03-10T04:46:28.811Z,0.00
2019-03-10T04:47:28.779Z,0.00
2019-03-10T04:48:28.783Z,0.00
2019-03-10T04:49:28.757Z,0.00
2019-03-10T04:50:28.749Z,0.00
2019-03-10T04:51:28.753Z,0.00
2019-03-10T04:52:28.721Z,0.00
2019-03-10T04:53:28.716Z,0.00
2019-03-10T04:54:28.705Z,0.00
2019-03-10T04:55:28.694Z,0.00
2019-03-10T04:56:28.691Z,0.00
2019-03-10T04:57:28.664Z,0.00
2019-03-10T04:58:28.650Z,0.00
2019-03-10T04:59:28.653Z,0.00
2019-03-10T05:00:28.634Z,0.00
2019-03-10T05:01:28.650Z,0.00
2019-03-10T05:02:28.620Z,0.00
2019-03-10T05:03:28.609Z,0.00
2019-03-10T05:04:28.598Z,4.00
2019-03-10T05:05:28.596Z,4.00
2019-03-10T05:06:28.588Z,4.00
2019-03-10T05:07:28.564Z,4.00
2019-03-10T05:08:28.537Z,4.00
2019-03-10T05:09:28.535Z,4.00
2019-03-10T05:10:28.522Z,4.00
2019-03-10T05:11:28.533Z,8.00
2019-03-10T05:12:28.501Z,8.00
2019-03-10T05:13:28.508Z,8.00
2019-03-10T05:14:28.477Z,12.00
2019-03-10T05:15:28.474Z,16.00
2019-03-10T05:16:28.474Z,16.00
2019-03-10T05:17:28.448Z,20.00
2019-03-10T05:18:28.437Z,20.00
2019-03-10T05:19:28.422Z,28.00
2019-03-10T05:20:28.411Z,32.00
2019-03-10T05:21:28.421Z,36.00
2019-03-10T05:22:28.401Z,44.00
2019-03-10T05:23:28.396Z,52.00
2019-03-10T05:24:28.515Z,60.00
2019-03-10T05:25:28.353Z,64.00
2019-03-10T05:26:28.343Z,72.00
2019-03-10T05:27:28.361Z,80.00
2019-03-10T05:28:28.328Z,92.00
2019-03-10T05:29:28.327Z,104.00
2019-03-10T05:30:28.312Z,112.00
2019-03-10T05:31:28.289Z,120.00
2019-03-10T05:32:28.298Z,128.00
2019-03-10T05:33:28.271Z,140.00
2019-03-10T05:34:28.267Z,148.00
2019-03-10T05:35:28.248Z,164.00
2019-03-10T05:36:28.230Z,180.00
2019-03-10T05:37:28.251Z,192.00
2019-03-10T05:38:28.223Z,204.00
2019-03-10T05:39:28.199Z,216.00
2019-03-10T05:40:28.194Z,232.00
2019-03-10T05:41:28.184Z,244.00
2019-03-10T05:42:28.194Z,256.00
2019-03-10T05:43:28.150Z,280.00
2019-03-10T05:44:28.138Z,296.00
2019-03-10T05:45:28.137Z,316.00
2019-03-10T05:46:28.119Z,336.00
2019-03-10T05:47:28.143Z,352.00
2019-03-10T05:48:28.096Z,368.00
2019-03-10T05:49:28.093Z,392.00
2019-03-10T05:50:28.077Z,408.00
2019-03-10T05:51:28.065Z,428.00
2019-03-10T05:52:28.070Z,464.00
2019-03-10T05:53:28.058Z,492.00
2019-03-10T05:54:28.035Z,512.00
2019-03-10T05:55:28.024Z,520.00
2019-03-10T05:56:28.017Z,536.00
2019-03-10T05:57:28.034Z,552.00
2019-03-10T05:58:27.986Z,568.00
2019-03-10T05:59:27.975Z,592.00
2019-03-10T06:00:27.987Z,624.00
2019-03-10T06:01:27.949Z,648.00
2019-03-10T06:02:27.971Z,696.00
2019-03-10T06:03:27.947Z,776.00
2019-03-10T06:04:27.928Z,856.00
2019-03-10T06:05:27.903Z,876.00
2019-03-10T06:06:27.913Z,912.00
2019-03-10T06:07:27.879Z,964.00
2019-03-10T06:08:27.896Z,1020.00
2019-03-10T06:09:27.859Z,1036.00
2019-03-10T06:10:27.851Z,1048.00
2019-03-10T06:11:27.840Z,1028.00
2019-03-10T06:12:27.832Z,1004.00
2019-03-10T06:13:27.840Z,932.00
2019-03-10T06:14:27.807Z,868.00
2019-03-10T06:15:27.799Z,840.00
2019-03-10T06:16:27.781Z,832.00
2019-03-10T06:17:27.775Z,856.00
2019-03-10T06:18:27.787Z,916.00
2019-03-10T06:19:27.755Z,972.00
2019-03-10T06:20:27.753Z,996.00
2019-03-10T06:21:27.745Z,976.00
2019-03-10T06:22:27.717Z,960.00
2019-03-10T06:23:27.725Z,956.00
2019-03-10T06:24:27.693Z,976.00
2019-03-10T06:25:27.695Z,996.00
2019-03-10T06:26:27.687Z,1016.00
2019-03-10T06:27:27.661Z,1044.00
2019-03-10T06:28:27.666Z,1064.00
2019-03-10T06:29:27.644Z,1096.00
2019-03-10T06:30:27.627Z,1136.00
2019-03-10T06:31:27.628Z,1204.00
2019-03-10T06:32:27.610Z,1272.00
2019-03-10T06:33:27.628Z,1356.00
2019-03-10T06:34:27.591Z,1420.00
2019-03-10T06:35:27.583Z,1484.00
2019-03-10T06:36:27.565Z,1584.00
2019-03-10T06:37:27.553Z,1740.00
2019-03-10T06:38:27.563Z,2012.00
2019-03-10T06:39:27.523Z,2420.00
2019-03-10T06:40:32.133Z,2656.00
2019-03-10T06:41:28.521Z,2832.00
2019-03-10T06:42:27.502Z,3044.00
2019-03-10T06:43:27.527Z,3236.00
2019-03-10T06:44:27.467Z,3520.00
2019-03-10T06:45:27.463Z,3736.00
2019-03-10T06:46:27.448Z,3832.00
2019-03-10T06:47:27.438Z,3820.00
2019-03-10T06:48:27.453Z,3660.00
2019-03-10T06:49:27.414Z,3524.00
2019-03-10T06:50:27.406Z,3432.00
2019-03-10T06:51:27.403Z,3356.00
2019-03-10T06:52:27.395Z,3504.00
2019-03-10T06:53:27.405Z,3536.00
2019-03-10T06:54:27.389Z,3516.00
2019-03-10T06:55:27.350Z,3496.00
2019-03-10T06:56:27.335Z,3644.00
2019-03-10T06:57:27.330Z,3804.00
2019-03-10T06:58:27.316Z,3832.00
2019-03-10T06:59:27.325Z,3612.00
2019-03-10T07:00:27.316Z,3496.00
2019-03-10T07:01:27.290Z,3504.00
2019-03-10T07:02:27.272Z,3644.00
2019-03-10T07:03:27.270Z,3792.00
2019-03-10T07:04:27.288Z,3864.00
2019-03-10T07:05:27.239Z,3900.00
2019-03-10T07:06:27.227Z,4052.00
2019-03-10T07:07:27.211Z,4112.00
2019-03-10T07:08:27.205Z,4048.00
2019-03-10T07:09:27.213Z,4144.00
2019-03-10T07:10:27.194Z,4168.00
2019-03-10T07:11:27.173Z,4168.00
2019-03-10T07:12:27.169Z,4256.00
2019-03-10T07:13:27.174Z,4312.00
2019-03-10T07:14:27.157Z,4448.00
2019-03-10T07:15:27.136Z,4560.00
2019-03-10T07:16:27.126Z,4504.00
2019-03-10T07:17:27.111Z,4320.00
2019-03-10T07:18:27.106Z,4440.00
2019-03-10T07:19:27.106Z,4720.00
2019-03-10T07:20:27.074Z,4928.00
2019-03-10T07:21:27.095Z,4788.00
2019-03-10T07:22:27.054Z,4584.00
2019-03-10T07:23:27.110Z,4796.00
2019-03-10T07:24:27.092Z,5144.00
2019-03-10T07:25:27.051Z,5636.00
2019-03-10T07:26:27.004Z,5736.00
2019-03-10T07:27:26.993Z,5676.00
2019-03-10T07:28:26.983Z,5520.00
2019-03-10T07:29:27.011Z,5404.00
2019-03-10T07:30:26.956Z,5496.00
2019-03-10T07:31:27.032Z,5636.00
2019-03-10T07:32:26.941Z,5628.00
2019-03-10T07:33:26.937Z,5608.00
2019-03-10T07:34:27.089Z,5576.00
2019-03-10T07:35:26.905Z,5628.00
2019-03-10T07:36:26.892Z,5608.00
2019-03-10T07:37:26.931Z,5412.00
2019-03-10T07:38:26.867Z,5200.00
2019-03-10T07:39:26.885Z,5032.00
2019-03-10T07:40:26.876Z,4988.00
2019-03-10T07:41:26.835Z,5140.00
2019-03-10T07:42:26.825Z,5432.00
2019-03-10T07:43:26.823Z,5552.00
2019-03-10T07:44:26.808Z,5592.00
2019-03-10T07:45:26.811Z,5736.00
2019-03-10T07:46:26.851Z,5868.00
2019-03-10T07:47:26.839Z,5932.00
2019-03-10T07:48:26.761Z,5880.00
2019-03-10T07:49:26.752Z,5932.00
2019-03-10T07:50:26.762Z,5960.00
2019-03-10T07:51:26.747Z,5984.00
2019-03-10T07:52:26.717Z,6040.00
2019-03-10T07:53:26.698Z,6056.00
2019-03-10T07:54:26.689Z,6008.00
2019-03-10T07:55:26.697Z,5984.00
2019-03-10T07:56:26.695Z,5992.00
2019-03-10T07:57:26.670Z,6088.00
2019-03-10T07:58:26.653Z,6304.00
2019-03-10T07:59:26.633Z,6576.00
2019-03-10T08:00:26.640Z,6808.00
2019-03-10T08:01:26.615Z,6992.00
2019-03-10T08:02:26.609Z,6956.00
2019-03-10T08:03:26.977Z,7080.00
2019-03-10T08:04:26.598Z,7088.00
2019-03-10T08:05:26.586Z,7172.00
2019-03-10T08:06:26.567Z,7416.00
2019-03-10T08:07:26.562Z,7384.00
2019-03-10T08:08:26.537Z,7136.00
2019-03-10T08:09:26.525Z,7044.00
2019-03-10T08:10:26.531Z,7072.00
2019-03-10T08:11:26.497Z,7308.00
2019-03-10T08:12:26.493Z,7528.00
2019-03-10T08:13:26.489Z,7752.00
2019-03-10T08:14:26.474Z,7908.00
2019-03-10T08:15:26.466Z,8068.00
2019-03-10T08:16:26.449Z,8172.00
2019-03-10T08:17:26.438Z,8352.00
2019-03-10T08:18:26.443Z,8492.00
2019-03-10T08:19:26.414Z,8608.00
2019-03-10T08:20:26.421Z,8844.00
2019-03-10T08:21:26.403Z,9168.00
2019-03-10T08:22:26.390Z,9136.00
2019-03-10T08:23:26.389Z,8904.00
2019-03-10T08:24:26.368Z,8316.00
2019-03-10T08:25:26.350Z,7712.00
2019-03-10T08:26:26.379Z,7324.00
2019-03-10T08:27:26.322Z,7060.00
2019-03-10T08:28:26.307Z,6892.00
2019-03-10T08:29:26.317Z,6692.00
2019-03-10T08:30:26.300Z,6704.00
2019-03-10T08:31:26.304Z,6964.00
2019-03-10T08:32:26.263Z,7172.00
2019-03-10T08:33:26.255Z,7508.00
2019-03-10T08:34:26.248Z,7952.00
2019-03-10T08:35:26.246Z,8796.00
2019-03-10T08:36:26.241Z,9500.00
2019-03-10T08:37:26.205Z,10016.00
2019-03-10T08:38:26.301Z,10768.00
2019-03-10T08:39:26.199Z,10684.00
2019-03-10T08:40:26.186Z,10292.00
2019-03-10T08:41:26.273Z,10228.00
2019-03-10T08:42:26.154Z,10204.00
2019-03-10T08:43:26.145Z,9604.00
2019-03-10T08:44:26.129Z,9272.00
2019-03-10T08:45:26.122Z,8992.00
2019-03-10T08:46:26.142Z,8824.00
2019-03-10T08:47:26.091Z,8856.00
2019-03-10T08:48:26.081Z,8744.00
2019-03-10T08:49:26.089Z,8896.00
2019-03-10T08:50:26.070Z,8776.00
2019-03-10T08:51:26.066Z,8856.00
2019-03-10T08:52:26.039Z,8900.00
2019-03-10T08:53:26.033Z,8944.00
2019-03-10T08:54:26.021Z,9080.00
2019-03-10T08:55:26.003Z,9064.00
2019-03-10T08:56:26.008Z,8716.00
2019-03-10T08:57:25.993Z,8520.00
2019-03-10T08:58:25.990Z,8396.00
2019-03-10T08:59:25.971Z,8672.00
2019-03-10T09:00:25.961Z,9112.00
2019-03-10T09:01:25.998Z,9052.00
2019-03-10T09:02:25.921Z,9064.00
2019-03-10T09:03:25.918Z,9392.00
2019-03-10T09:04:25.913Z,9700.00
2019-03-10T09:05:25.899Z,9704.00
2019-03-10T09:06:25.915Z,9872.00
2019-03-10T09:07:25.931Z,9896.00
2019-03-10T09:08:25.882Z,9696.00
2019-03-10T09:09:25.852Z,9252.00
2019-03-10T09:10:25.838Z,9544.00
2019-03-10T09:11:25.854Z,9980.00
2019-03-10T09:12:25.819Z,10024.00
2019-03-10T09:13:25.826Z,9632.00
2019-03-10T09:14:25.786Z,9344.00
2019-03-10T09:15:25.790Z,8724.00
2019-03-10T09:16:25.778Z,8744.00
2019-03-10T09:17:25.789Z,9300.00
2019-03-10T09:18:25.743Z,9532.00
2019-03-10T09:19:25.750Z,9444.00
2019-03-10T09:20:25.726Z,9428.00
2019-03-10T09:21:25.725Z,9540.00
2019-03-10T09:22:25.768Z,9516.00
2019-03-10T09:23:25.720Z,9864.00
2019-03-10T09:24:25.694Z,10424.00
2019-03-10T09:25:25.679Z,10468.00
2019-03-10T09:26:25.665Z,10916.00
2019-03-10T09:27:28.279Z,11840.00
2019-03-10T09:28:25.655Z,12368.00
2019-03-10T09:29:25.646Z,12728.00
2019-03-10T09:30:25.614Z,12704.00
2019-03-10T09:31:25.598Z,12804.00
2019-03-10T09:32:25.609Z,13172.00
2019-03-10T09:33:25.582Z,12976.00
2019-03-10T09:34:25.575Z,12772.00
2019-03-10T09:35:25.554Z,12424.00
2019-03-10T09:36:25.555Z,12076.00
2019-03-10T09:37:25.565Z,11696.00
2019-03-10T09:38:25.535Z,11252.00
2019-03-10T09:39:25.516Z,10756.00
2019-03-10T09:40:25.494Z,10892.00
2019-03-10T09:41:25.495Z,10704.00
2019-03-10T09:42:25.510Z,10604.00
2019-03-10T09:43:25.474Z,10784.00
2019-03-10T09:44:25.477Z,10744.00
2019-03-10T09:45:25.437Z,9928.00
2019-03-10T09:46:25.426Z,9640.00
2019-03-10T09:47:25.440Z,10008.00
2019-03-10T09:48:25.406Z,9828.00
2019-03-10T09:49:25.400Z,8824.00
2019-03-10T09:50:25.390Z,7524.00
2019-03-10T09:51:25.379Z,6208.00
2019-03-10T09:52:25.402Z,7632.00
2019-03-10T09:53:25.351Z,8192.00
2019-03-10T09:54:25.349Z,7484.00
2019-03-10T09:55:25.345Z,7688.00
2019-03-10T09:56:25.314Z,7924.00
2019-03-10T09:57:25.337Z,7880.00
2019-03-10T09:58:25.298Z,8976.00
2019-03-10T09:59:25.293Z,9800.00
2019-03-10T10:00:25.387Z,11304.00
2019-03-10T10:01:25.264Z,10764.00
2019-03-10T10:02:25.273Z,9860.00
2019-03-10T10:03:25.241Z,9556.00
2019-03-10T10:04:25.221Z,9424.00
2019-03-10T10:05:25.233Z,9204.00
2019-03-10T10:06:25.225Z,8924.00
2019-03-10T10:07:25.197Z,9436.00
2019-03-10T10:08:25.222Z,9608.00
2019-03-10T10:09:25.170Z,10288.00
2019-03-10T10:10:25.188Z,10840.00
2019-03-10T10:11:25.155Z,9860.00
2019-03-10T10:12:25.142Z,9020.00
2019-03-10T10:13:25.152Z,8472.00
2019-03-10T10:14:25.112Z,7956.00
2019-03-10T10:15:25.107Z,7768.00
2019-03-10T10:16:25.087Z,7756.00
2019-03-10T10:17:25.096Z,7796.00
2019-03-10T10:18:25.095Z,7836.00
2019-03-10T10:19:25.066Z,7784.00
2019-03-10T10:20:26.831Z,7796.00
2019-03-10T10:21:25.033Z,8016.00
2019-03-10T10:22:25.022Z,8104.00
2019-03-10T10:23:25.050Z,8132.00
2019-03-10T10:24:25.014Z,7804.00
2019-03-10T10:25:25.001Z,7492.00
2019-03-10T10:26:24.986Z,7504.00
2019-03-10T10:27:24.968Z,7376.00
2019-03-10T10:28:25.001Z,7224.00
2019-03-10T10:29:24.945Z,7136.00
2019-03-10T10:30:24.973Z,7176.00
2019-03-10T10:31:24.941Z,7436.00
2019-03-10T10:32:24.931Z,7748.00
2019-03-10T10:33:24.931Z,7656.00
2019-03-10T10:34:24.928Z,7248.00
2019-03-10T10:35:24.898Z,7256.00
2019-03-10T10:36:24.875Z,6692.00
2019-03-10T10:37:24.880Z,5428.00
2019-03-10T10:38:24.870Z,5848.00
2019-03-10T10:39:24.845Z,5792.00
2019-03-10T10:40:24.825Z,5280.00
2019-03-10T10:41:24.815Z,5568.00
2019-03-10T10:42:24.832Z,5048.00
2019-03-10T10:43:24.918Z,5004.00
2019-03-10T10:44:24.787Z,5740.00
2019-03-10T10:45:24.776Z,5568.00
2019-03-10T10:46:24.773Z,6352.00
2019-03-10T10:47:24.761Z,6496.00
2019-03-10T10:48:24.779Z,6136.00
2019-03-10T10:49:24.730Z,6180.00
2019-03-10T10:50:24.718Z,6432.00
2019-03-10T10:51:24.717Z,6500.00
2019-03-10T10:52:24.723Z,6620.00
2019-03-10T10:53:24.704Z,6688.00
2019-03-10T10:54:24.683Z,6632.00
2019-03-10T10:55:24.652Z,6680.00
2019-03-10T10:56:24.652Z,6792.00
2019-03-10T10:57:24.640Z,6772.00
2019-03-10T10:58:24.659Z,6656.00
2019-03-10T10:59:24.606Z,6400.00
2019-03-10T11:00:24.608Z,6028.00
2019-03-10T11:01:24.590Z,5660.00
2019-03-10T11:02:24.578Z,5304.00
2019-03-10T11:03:24.612Z,5084.00
2019-03-10T11:04:24.576Z,4824.00
2019-03-10T11:05:24.539Z,4684.00
2019-03-10T11:06:24.539Z,4700.00
2019-03-10T11:07:24.512Z,4744.00
2019-03-10T11:08:24.533Z,4800.00
2019-03-10T11:09:24.502Z,4796.00
2019-03-10T11:10:24.493Z,4756.00
2019-03-10T11:11:24.466Z,4856.00
2019-03-10T11:12:24.459Z,4888.00
2019-03-10T11:13:24.475Z,5124.00
2019-03-10T11:14:24.466Z,5444.00
2019-03-10T11:15:24.418Z,5652.00
2019-03-10T11:16:24.411Z,6152.00
2019-03-10T11:17:24.404Z,6520.00
2019-03-10T11:18:24.425Z,6712.00
2019-03-10T11:19:24.390Z,6828.00
2019-03-10T11:20:24.399Z,6936.00
2019-03-10T11:21:24.358Z,7012.00
2019-03-10T11:22:24.643Z,7584.00
2019-03-10T11:23:24.376Z,8256.00
2019-03-10T11:24:24.329Z,8848.00
2019-03-10T11:25:24.323Z,9512.00
2019-03-10T11:26:24.303Z,10316.00
2019-03-10T11:27:24.286Z,10328.00
2019-03-10T11:28:24.344Z,10068.00
2019-03-10T11:29:24.264Z,10092.00
2019-03-10T11:30:24.263Z,10256.00
2019-03-10T11:31:24.248Z,10352.00
2019-03-10T11:32:24.254Z,9480.00
2019-03-10T11:33:24.263Z,8332.00
2019-03-10T11:34:24.215Z,7704.00
2019-03-10T11:35:24.265Z,7492.00
2019-03-10T11:36:24.209Z,6788.00
2019-03-10T11:37:24.179Z,6348.00
2019-03-10T11:38:24.192Z,5984.00
2019-03-10T11:39:24.152Z,5800.00
2019-03-10T11:40:24.147Z,5816.00
2019-03-10T11:41:33.215Z,6156.00
2019-03-10T11:42:25.119Z,6308.00
2019-03-10T11:43:24.151Z,6512.00
2019-03-10T11:44:24.105Z,6264.00
2019-03-10T11:45:24.088Z,5804.00
2019-03-10T11:46:24.073Z,6016.00
2019-03-10T11:47:24.066Z,5324.00
2019-03-10T11:48:24.062Z,4748.00
2019-03-10T11:49:24.061Z,3904.00
2019-03-10T11:50:24.026Z,2972.00
2019-03-10T11:51:24.028Z,2528.00
2019-03-10T11:52:24.012Z,2736.00
2019-03-10T11:53:25.747Z,3332.00
2019-03-10T11:54:24.015Z,3532.00
2019-03-10T11:55:24.042Z,3756.00
2019-03-10T11:56:23.959Z,3900.00
2019-03-10T11:57:23.951Z,3812.00
2019-03-10T11:58:23.945Z,3316.00
2019-03-10T11:59:23.988Z,3356.00
2019-03-10T12:00:23.953Z,3616.00
2019-03-10T12:01:23.918Z,3620.00
2019-03-10T12:02:23.904Z,3652.00
2019-03-10T12:03:23.886Z,3684.00
2019-03-10T12:04:23.881Z,3696.00
2019-03-10T12:05:23.890Z,3776.00
2019-03-10T12:06:23.846Z,4028.00
2019-03-10T12:07:23.830Z,4264.00
2019-03-10T12:08:23.839Z,4364.00
2019-03-10T12:09:23.844Z,4632.00
2019-03-10T12:10:23.835Z,4832.00
2019-03-10T12:11:23.797Z,4952.00
2019-03-10T12:12:23.784Z,5104.00
2019-03-10T12:13:23.788Z,5372.00
2019-03-10T12:14:23.758Z,5700.00
2019-03-10T12:15:23.783Z,5904.00
2019-03-10T12:16:23.751Z,5968.00
2019-03-10T12:17:23.759Z,6000.00
2019-03-10T12:18:23.718Z,6248.00
2019-03-10T12:19:23.707Z,6620.00
2019-03-10T12:20:23.767Z,7316.00
2019-03-10T12:21:23.686Z,7692.00
2019-03-10T12:22:23.694Z,7684.00
2019-03-10T12:23:23.680Z,7408.00
2019-03-10T12:24:23.660Z,7304.00
2019-03-10T12:25:23.665Z,7480.00
2019-03-10T12:26:23.679Z,7664.00
2019-03-10T12:27:23.630Z,7816.00
2019-03-10T12:28:23.630Z,7904.00
2019-03-10T12:29:23.604Z,7760.00
2019-03-10T12:30:23.578Z,7420.00
2019-03-10T12:31:23.592Z,7324.00
2019-03-10T12:32:23.556Z,7320.00
2019-03-10T12:33:23.559Z,7520.00
2019-03-10T12:34:23.546Z,8116.00
2019-03-10T12:35:33.629Z,8804.00